createdAt,value
2023-02-04T00:00:55.604Z,0.63
2023-02-04T00:03:24.892Z,0.72
2023-02-04T00:05:54.079Z,0.76
2023-02-04T00:08:23.390Z,0.73
2023-02-04T00:10:54.641Z,0.52
2023-02-04T00:13:23.846Z,0.79
2023-02-04T00:15:52.965Z,0.69
2023-02-04T00:18:22.321Z,0.74
2023-02-04T00:20:51.448Z,0.50
2023-02-04T00:23:20.532Z,0.63
2023-02-04T00:25:49.940Z,0.62
2023-02-04T00:28:21.491Z,0.47
2023-02-04T00:30:55.699Z,0.63
2023-02-04T00:33:25.017Z,0.62
2023-02-04T00:35:54.062Z,0.62
2023-02-04T00:38:23.504Z,0.66
2023-02-04T00:40:52.922Z,0.48
2023-02-04T00:43:29.172Z,0.65
2023-02-04T00:46:03.668Z,0.61
2023-02-04T00:48:34.289Z,0.60
2023-02-04T00:51:06.822Z,0.60
2023-02-04T00:53:35.612Z,0.67
2023-02-04T00:56:04.880Z,0.56
2023-02-04T00:58:35.990Z,0.44
2023-02-04T01:01:05.796Z,0.57
2023-02-04T01:03:34.945Z,0.49
2023-02-04T01:06:04.265Z,0.39
2023-02-04T01:08:38.341Z,0.41
2023-02-04T01:11:07.853Z,0.63
2023-02-04T01:13:38.967Z,0.63
2023-02-04T01:16:08.403Z,0.65
2023-02-04T01:18:37.815Z,0.68
2023-02-04T01:21:07.486Z,0.72
2023-02-04T01:23:37.058Z,0.70
2023-02-04T01:26:11.119Z,0.63
2023-02-04T01:28:42.321Z,0.53
2023-02-04T01:31:17.038Z,0.52
2023-02-04T01:33:52.529Z,0.42
2023-02-04T01:36:21.868Z,0.50
2023-02-04T01:38:51.455Z,0.56
2023-02-04T01:41:26.358Z,0.63
2023-02-04T01:43:57.632Z,0.62
2023-02-04T01:46:27.317Z,0.59
2023-02-04T01:48:56.619Z,0.58
2023-02-04T01:54:13.842Z,0.60
2023-02-04T01:56:51.176Z,0.56
2023-02-04T01:59:27.776Z,0.50
2023-02-04T02:01:56.999Z,0.47
2023-02-04T02:04:33.287Z,0.60
2023-02-04T02:07:09.483Z,0.55
2023-02-04T02:09:38.717Z,0.66
2023-02-04T02:12:09.591Z,0.65
2023-02-04T02:14:45.778Z,0.65
2023-02-04T02:17:19.899Z,0.62
2023-02-04T02:19:49.323Z,0.63
2023-02-04T02:22:25.612Z,0.58
2023-02-04T02:25:02.299Z,0.60
2023-02-04T02:27:32.157Z,0.55
2023-02-04T02:30:01.673Z,0.40
2023-02-04T02:32:32.950Z,0.58
2023-02-04T02:35:02.195Z,0.57
2023-02-04T02:37:34.717Z,0.54
2023-02-04T02:40:12.783Z,0.52
2023-02-04T02:42:44.579Z,0.40
2023-02-04T02:45:25.222Z,0.34
2023-02-04T02:47:54.914Z,0.32
2023-02-04T02:50:27.785Z,0.36
2023-02-04T02:53:04.237Z,0.06
2023-02-04T02:55:35.927Z,0.16
2023-02-04T02:58:07.285Z,0.23
2023-02-04T03:00:36.437Z,0.22
2023-02-04T03:03:15.551Z,0.19
2023-02-04T03:05:48.444Z,0.07
2023-02-04T03:08:19.095Z,0.02
2023-02-04T03:10:50.734Z,0.15
2023-02-04T03:13:20.994Z,0.25
2023-02-04T03:15:51.593Z,0.28
2023-02-04T03:18:22.595Z,0.31
2023-02-04T03:20:53.239Z,0.32
2023-02-04T03:23:22.886Z,0.31
2023-02-04T03:25:54.192Z,0.33
2023-02-04T03:28:23.353Z,0.36
2023-02-04T03:33:35.622Z,0.41
2023-02-04T03:36:04.860Z,0.48
2023-02-04T03:38:34.349Z,0.55
2023-02-04T03:41:11.570Z,0.48
2023-02-04T03:43:40.818Z,0.56
2023-02-04T03:46:10.583Z,0.55
2023-02-04T03:48:39.828Z,0.53
2023-02-04T03:51:18.802Z,0.62
2023-02-04T03:53:48.046Z,0.62
2023-02-04T03:56:22.217Z,0.59
2023-02-04T03:58:51.590Z,0.64
2023-02-04T04:01:20.703Z,0.64
2023-02-04T04:06:24.897Z,0.64
2023-02-04T04:08:53.923Z,0.55
2023-02-04T04:11:31.116Z,0.68
2023-02-04T04:14:00.921Z,0.67
2023-02-04T04:16:30.041Z,0.65
2023-02-04T04:18:59.626Z,0.60
2023-02-04T04:21:28.801Z,0.50
2023-02-04T04:24:09.818Z,0.58
2023-02-04T04:26:41.222Z,0.55
2023-02-04T04:29:10.389Z,0.59
2023-02-04T04:31:39.648Z,0.57
2023-02-04T04:34:08.837Z,0.58
2023-02-04T04:36:37.922Z,0.41
2023-02-04T04:39:07.093Z,0.12
2023-02-04T04:41:36.130Z,-0.07
2023-02-04T04:44:09.707Z,0.27
2023-02-04T04:46:40.243Z,0.41
2023-02-04T04:49:09.914Z,0.34
2023-02-04T04:51:39.000Z,0.40
2023-02-04T04:54:08.267Z,0.27
2023-02-04T04:56:43.391Z,0.47
2023-02-04T04:59:14.558Z,0.45
2023-02-04T05:01:44.280Z,0.51
2023-02-04T05:04:13.687Z,0.47
2023-02-04T05:06:42.779Z,0.45
2023-02-04T05:09:12.009Z,0.47
2023-02-04T05:11:41.208Z,0.40
2023-02-04T05:14:10.412Z,0.48
2023-02-04T05:16:41.394Z,0.33
2023-02-04T05:19:10.597Z,0.52
2023-02-04T05:21:39.710Z,0.52
2023-02-04T05:26:44.043Z,0.55
2023-02-04T05:29:13.039Z,0.56
2023-02-04T05:31:44.474Z,0.49
2023-02-04T05:34:13.808Z,0.57
2023-02-04T05:36:42.957Z,0.47
2023-02-04T05:39:12.155Z,0.41
2023-02-04T05:41:41.381Z,0.34
2023-02-04T05:44:11.132Z,0.40
2023-02-04T05:46:40.569Z,0.42
2023-02-04T05:49:11.621Z,0.41
2023-02-04T05:51:45.985Z,0.33
2023-02-04T05:54:20.370Z,0.31
2023-02-04T05:56:56.355Z,0.27
2023-02-04T05:59:25.505Z,0.31
2023-02-04T06:01:54.517Z,0.17
2023-02-04T06:04:30.779Z,0.28
2023-02-04T06:07:00.394Z,0.30
2023-02-04T06:09:29.545Z,0.32
2023-02-04T06:11:58.755Z,0.36
2023-02-04T06:14:27.824Z,0.41
2023-02-04T06:16:57.114Z,0.40
2023-02-04T06:19:26.403Z,0.43
2023-02-04T06:21:57.460Z,0.43
2023-02-04T06:24:26.839Z,0.74
2023-02-04T06:26:58.074Z,0.81
2023-02-04T06:29:32.287Z,0.87
2023-02-04T06:32:01.537Z,0.85
2023-02-04T06:34:35.798Z,0.93
2023-02-04T06:37:06.890Z,1.00
2023-02-04T06:39:36.226Z,1.24
2023-02-04T06:42:06.066Z,1.08
2023-02-04T06:44:35.512Z,1.30
2023-02-04T06:47:09.880Z,1.17
2023-02-04T06:49:39.371Z,1.10
2023-02-04T06:52:10.608Z,1.11
2023-02-04T06:54:40.192Z,1.17
2023-02-04T06:57:09.285Z,1.21
2023-02-04T06:59:40.130Z,1.31
2023-02-04T07:02:11.051Z,1.24
2023-02-04T07:04:41.629Z,1.17
2023-02-04T07:07:12.928Z,1.00
2023-02-04T07:09:42.232Z,1.08
2023-02-04T07:12:11.340Z,1.00
2023-02-04T07:14:40.565Z,1.10
2023-02-04T07:17:09.722Z,1.26
2023-02-04T07:19:39.136Z,1.59
2023-02-04T07:22:08.304Z,1.62
2023-02-04T07:24:39.713Z,1.40
2023-02-04T07:27:08.986Z,1.06
2023-02-04T07:29:37.986Z,0.95
2023-02-04T07:32:07.504Z,0.97
2023-02-04T07:34:36.783Z,0.82
2023-02-04T07:37:06.017Z,0.94
2023-02-04T07:39:35.106Z,0.86
2023-02-04T07:42:06.213Z,0.83
2023-02-04T07:44:45.106Z,0.76
2023-02-04T07:47:14.756Z,0.82
2023-02-04T07:49:44.404Z,0.79
2023-02-04T07:52:14.049Z,0.87
2023-02-04T07:54:43.244Z,0.84
2023-02-04T07:57:14.251Z,0.83
2023-02-04T07:59:43.426Z,0.55
2023-02-04T08:02:20.354Z,0.67
2023-02-04T08:04:49.950Z,0.75
2023-02-04T08:07:19.108Z,0.85
2023-02-04T08:09:48.516Z,0.92
2023-02-04T08:12:19.648Z,1.10
2023-02-04T08:14:48.884Z,1.21
2023-02-04T08:17:17.993Z,1.23
2023-02-04T08:19:47.119Z,1.48
2023-02-04T08:22:16.359Z,1.58
2023-02-04T08:24:45.542Z,1.67
2023-02-04T08:27:14.704Z,1.81
2023-02-04T08:29:51.184Z,1.93
2023-02-04T08:32:26.574Z,1.90
2023-02-04T08:35:06.592Z,1.84
2023-02-04T08:37:36.199Z,1.72
2023-02-04T08:40:05.894Z,1.59
2023-02-04T08:42:35.313Z,1.27
2023-02-04T08:45:07.025Z,1.55
2023-02-04T08:47:38.983Z,1.54
2023-02-04T08:50:09.514Z,1.63
2023-02-04T08:52:38.719Z,1.67
2023-02-04T08:55:15.550Z,1.81
2023-02-04T08:57:44.699Z,1.90
2023-02-04T09:00:18.356Z,1.92
2023-02-04T09:02:57.653Z,1.84
2023-02-04T09:05:26.954Z,1.56
2023-02-04T09:07:56.544Z,1.51
2023-02-04T09:10:25.723Z,1.50
2023-02-04T09:12:55.707Z,1.25
2023-02-04T09:15:27.585Z,1.50
2023-02-04T09:18:11.133Z,1.31
2023-02-04T09:20:40.428Z,1.40
2023-02-04T09:23:11.616Z,1.01
2023-02-04T09:25:41.073Z,1.37
2023-02-04T09:28:12.154Z,1.37
2023-02-04T09:30:45.808Z,1.51
2023-02-04T09:33:17.399Z,1.39
2023-02-04T09:35:51.491Z,1.12
2023-02-04T09:38:21.760Z,1.03
2023-02-04T09:40:56.557Z,1.01
2023-02-04T09:43:33.635Z,0.77
2023-02-04T09:46:05.415Z,1.12
2023-02-04T09:48:34.465Z,1.17
2023-02-04T09:51:07.745Z,1.14
2023-02-04T09:53:47.325Z,1.20
2023-02-04T09:56:16.868Z,1.45
2023-02-04T09:58:46.372Z,1.48
2023-02-04T10:01:20.447Z,1.62
2023-02-04T10:03:51.833Z,1.47
2023-02-04T10:06:23.127Z,1.73
2023-02-04T10:08:53.980Z,1.70
2023-02-04T10:11:29.570Z,1.66
2023-02-04T10:13:58.921Z,1.65
2023-02-04T10:16:33.517Z,1.56
2023-02-04T10:19:09.532Z,1.42
2023-02-04T10:21:45.926Z,1.27
2023-02-04T10:24:18.101Z,1.63
2023-02-04T11:29:38.358Z,0.74
2023-02-04T11:32:14.846Z,0.40
2023-02-04T11:34:51.115Z,0.66
2023-02-04T11:37:39.519Z,0.70
2023-02-04T11:40:25.249Z,0.83
2023-02-04T11:43:03.256Z,0.97
2023-02-04T11:45:46.564Z,0.84
2023-02-04T11:48:19.761Z,0.59
2023-02-04T11:50:57.574Z,0.68
2023-02-04T11:53:30.695Z,0.62
2023-02-04T11:56:00.543Z,0.36
2023-02-04T11:58:31.937Z,0.09
2023-02-04T12:01:03.183Z,0.33
2023-02-04T12:03:34.583Z,0.43
2023-02-04T12:06:04.573Z,0.34
2023-02-04T12:08:36.059Z,0.39
2023-02-04T12:11:10.747Z,0.40
2023-02-04T12:13:49.125Z,0.54
2023-02-04T12:16:23.032Z,0.29
2023-02-04T12:18:52.868Z,0.45
2023-02-04T12:21:22.486Z,0.33
2023-02-04T12:23:57.517Z,0.41
2023-02-04T12:26:26.706Z,0.37
2023-02-04T12:28:57.003Z,0.45
2023-02-04T12:31:28.280Z,0.39
2023-02-04T12:33:57.934Z,0.11
2023-02-04T12:36:29.309Z,-0.41
2023-02-04T12:38:59.503Z,-0.17
2023-02-04T12:41:28.982Z,0.11
2023-02-04T12:43:58.099Z,0.22
2023-02-04T12:53:53.042Z,0.02
2023-02-04T12:56:23.790Z,-0.08
2023-02-04T12:58:53.854Z,-0.04
2023-02-04T13:01:22.937Z,-0.23
2023-02-04T13:03:51.998Z,-0.14
2023-02-04T13:06:21.290Z,-0.07
2023-02-04T13:08:52.436Z,-0.05
2023-02-04T13:11:26.731Z,-0.11
2023-02-04T13:13:55.839Z,-0.26
2023-02-04T13:16:25.826Z,-0.10
2023-02-04T13:18:54.908Z,-0.11
2023-02-04T13:21:28.352Z,-0.24
2023-02-04T13:23:59.667Z,-0.09
2023-02-04T13:26:29.160Z,-0.17
2023-02-04T13:28:58.169Z,-0.23
2023-02-04T13:31:27.585Z,-0.21
2023-02-04T13:33:56.681Z,-0.33
2023-02-04T13:36:27.366Z,-0.21
2023-02-04T13:38:59.831Z,-0.28
2023-02-04T13:41:35.699Z,-0.52
2023-02-04T13:44:10.076Z,-0.76
2023-02-04T13:46:39.312Z,-0.42
2023-02-04T13:49:10.107Z,-0.51
2023-02-04T13:51:39.461Z,-0.54
2023-02-04T13:54:10.859Z,-0.60
2023-02-04T13:56:40.721Z,-0.79
2023-02-04T13:59:10.025Z,-0.61
2023-02-04T14:01:39.391Z,-0.63
2023-02-04T14:04:08.544Z,-0.72
2023-02-04T14:06:43.067Z,-0.80
2023-02-04T14:09:14.613Z,-0.71
2023-02-04T14:11:44.228Z,-1.10
2023-02-04T14:14:13.359Z,-0.70
2023-02-04T14:16:42.839Z,-0.69
2023-02-04T14:19:23.807Z,-0.65
2023-02-04T14:21:53.694Z,-0.65
2023-02-04T14:24:25.290Z,-0.61
2023-02-04T14:26:55.769Z,-0.58
2023-02-04T14:29:24.856Z,-0.56
2023-02-04T14:31:54.028Z,-0.78
2023-02-04T14:34:23.072Z,-0.61
2023-02-04T14:39:33.842Z,-0.57
2023-02-04T14:42:04.875Z,-0.60
2023-02-04T14:44:34.043Z,-0.57
2023-02-04T14:47:03.111Z,-0.61
2023-02-04T14:49:36.843Z,-0.55
2023-02-04T14:52:06.844Z,-0.57
2023-02-04T14:54:38.165Z,-0.53
2023-02-04T14:57:10.850Z,-0.58
2023-02-04T14:59:40.083Z,-0.62
2023-02-04T15:02:09.264Z,-0.69
2023-02-04T15:04:43.592Z,-0.66
2023-02-04T15:07:26.688Z,-0.61
2023-02-04T15:10:02.961Z,-0.72
2023-02-04T15:12:33.108Z,-0.59
2023-02-04T15:15:02.253Z,-0.93
2023-02-04T15:17:36.629Z,-0.69
2023-02-04T15:20:08.144Z,-0.68
2023-02-04T15:22:39.610Z,-0.69
2023-02-04T15:25:11.878Z,-0.75
2023-02-04T15:27:47.071Z,-0.80
2023-02-04T15:30:16.414Z,-1.11
2023-02-04T15:32:47.162Z,-0.79
2023-02-04T15:35:19.154Z,-0.78
2023-02-04T15:38:14.289Z,-0.74
2023-02-04T15:40:45.499Z,-0.95
2023-02-04T15:43:14.634Z,-0.87
2023-02-04T15:45:43.967Z,-0.85
2023-02-04T15:48:19.279Z,-0.90
2023-02-04T15:50:48.411Z,-0.85
2023-02-04T15:53:17.967Z,-0.92
2023-02-04T15:55:54.285Z,-0.84
2023-02-04T15:58:23.543Z,-0.85
2023-02-04T16:00:52.736Z,-0.89
2023-02-04T16:03:27.033Z,-0.94
2023-02-04T16:05:57.086Z,-0.82
2023-02-04T16:08:31.423Z,-0.76
2023-02-04T16:11:02.437Z,-0.66
2023-02-04T16:13:31.712Z,-0.63
2023-02-04T16:16:00.863Z,-0.60
2023-02-04T16:18:33.841Z,-0.61
2023-02-04T16:21:02.943Z,-0.62
2023-02-04T16:26:18.786Z,-0.68
2023-02-04T16:28:48.335Z,-0.74
2023-02-04T16:31:17.766Z,-0.92
2023-02-04T16:33:46.992Z,-0.59
2023-02-04T16:36:18.258Z,-0.62
2023-02-04T16:38:47.974Z,-0.64
2023-02-04T16:41:21.325Z,-0.66
2023-02-04T16:43:50.719Z,-0.79
2023-02-04T16:46:20.021Z,-0.78
2023-02-04T16:48:49.490Z,-0.66
2023-02-04T16:51:20.005Z,-0.76
2023-02-04T16:53:50.017Z,-0.77
2023-02-04T16:56:21.165Z,-0.83
2023-02-04T16:58:50.354Z,-0.68
2023-02-04T17:01:19.567Z,-0.67
2023-02-04T17:03:48.773Z,-0.83
2023-02-04T17:06:18.521Z,-0.83
2023-02-04T17:08:47.744Z,-0.79
2023-02-04T17:11:31.983Z,-0.95
2023-02-04T17:14:05.572Z,-0.89
2023-02-04T17:16:35.122Z,-1.06
2023-02-04T17:19:05.065Z,-0.98
2023-02-04T17:21:37.606Z,-0.82
2023-02-04T17:24:07.409Z,-1.00
2023-02-04T17:26:39.583Z,-0.96
2023-02-04T17:29:21.497Z,-0.90
2023-02-04T17:31:52.371Z,-1.04
2023-02-04T17:34:21.773Z,-1.03
2023-02-04T17:36:51.074Z,-1.54
2023-02-04T17:39:20.300Z,-0.90
2023-02-04T17:41:49.376Z,-0.93
2023-02-04T17:44:23.988Z,-1.11
2023-02-04T17:46:54.156Z,-0.94
2023-02-04T17:49:23.483Z,-0.93
2023-02-04T17:51:52.714Z,-0.98
2023-02-04T17:54:21.984Z,-1.06
2023-02-04T17:56:52.518Z,-0.97
2023-02-04T17:59:23.838Z,-1.25
2023-02-04T18:01:53.295Z,-1.03
2023-02-04T18:04:22.661Z,-1.20
2023-02-04T18:06:58.977Z,-0.99
2023-02-04T18:09:28.899Z,-0.94
2023-02-04T18:12:14.783Z,-1.10
2023-02-04T18:14:51.807Z,-1.06
2023-02-04T18:17:21.219Z,-1.00
2023-02-04T18:19:51.659Z,-1.38
2023-02-04T18:22:25.602Z,-1.04
2023-02-04T18:24:57.388Z,-1.15
2023-02-04T18:27:33.070Z,-1.72
2023-02-04T18:30:04.219Z,-1.11
2023-02-04T18:32:38.998Z,-1.53
2023-02-04T18:35:36.358Z,-1.04
2023-02-04T18:38:17.704Z,-0.90
2023-02-04T18:40:46.840Z,-1.24
2023-02-04T18:43:29.996Z,-1.03
2023-02-04T18:46:24.515Z,-1.16
2023-02-04T18:52:17.324Z,-1.05
2023-02-04T18:54:57.630Z,-1.08
2023-02-04T19:00:32.330Z,-1.08
2023-02-04T19:03:21.793Z,-1.11
2023-02-04T19:05:51.505Z,-0.95
2023-02-04T19:08:26.757Z,-0.98
2023-02-04T19:10:57.750Z,-1.06
2023-02-04T19:13:29.083Z,-1.02
2023-02-04T19:16:02.728Z,-0.91
2023-02-04T19:18:41.473Z,-1.02
2023-02-04T19:21:24.887Z,-0.96
2023-02-04T19:23:58.193Z,-1.00
2023-02-04T19:26:34.145Z,-0.95
2023-02-04T19:29:03.481Z,-0.96
2023-02-04T19:31:35.571Z,-0.98
2023-02-04T19:34:22.978Z,-0.96
2023-02-04T19:36:52.871Z,-0.91
2023-02-04T19:39:32.331Z,-0.91
2023-02-04T19:42:02.861Z,-0.95
2023-02-04T19:44:39.542Z,-1.04
2023-02-04T19:47:25.570Z,-1.07
2023-02-04T19:50:03.432Z,-1.19
2023-02-04T19:52:38.307Z,-0.97
2023-02-04T19:55:37.174Z,-1.15
2023-02-04T19:58:18.070Z,-1.04
2023-02-04T20:00:52.692Z,-1.27
2023-02-04T20:03:30.863Z,-1.06
2023-02-04T20:06:22.108Z,-1.04
2023-02-04T20:08:57.247Z,-0.99
2023-02-04T20:11:44.869Z,-0.93
2023-02-04T20:14:51.609Z,-1.02
2023-02-04T20:17:35.965Z,-1.11
2023-02-04T20:20:28.914Z,-0.95
2023-02-04T20:23:01.838Z,-1.00
2023-02-04T20:25:39.816Z,-0.92
2023-02-04T20:28:40.319Z,-0.83
2023-02-04T20:31:28.256Z,-0.90
2023-02-04T20:33:59.587Z,-1.20
2023-02-04T20:36:44.162Z,-0.93
2023-02-04T20:39:36.764Z,-1.02
2023-02-04T20:42:33.644Z,-0.92
2023-02-04T20:45:34.314Z,-1.12
2023-02-04T20:48:28.257Z,-1.09
2023-02-04T20:51:00.926Z,-1.05
2023-02-04T20:53:32.052Z,-1.06
2023-02-04T20:56:17.628Z,-1.21
2023-02-04T20:58:48.047Z,-1.14
2023-02-04T21:01:24.369Z,-1.07
2023-02-04T21:03:53.733Z,-1.22
2023-02-04T21:06:29.374Z,-1.13
2023-02-04T21:09:00.016Z,-1.35
2023-02-04T21:11:31.444Z,-1.20
2023-02-04T21:14:05.729Z,-1.16
2023-02-04T21:16:35.227Z,-1.26
2023-02-04T21:19:06.246Z,-1.33
2023-02-04T21:21:35.989Z,-1.67
2023-02-04T21:24:05.261Z,-1.64
2023-02-04T21:26:38.108Z,-1.20
2023-02-04T21:29:07.942Z,-1.24
2023-02-04T21:31:37.510Z,-1.31
2023-02-04T21:34:06.836Z,-1.55
2023-02-04T21:36:36.188Z,-1.39
2023-02-04T21:39:16.675Z,-1.59
2023-02-04T21:42:08.231Z,-1.41
2023-02-04T21:44:47.512Z,-1.74
2023-02-04T21:47:17.269Z,-1.65
2023-02-04T21:49:52.102Z,-1.56
2023-02-04T21:52:21.380Z,-1.51
2023-02-04T21:54:50.511Z,-1.63
2023-02-04T21:57:21.579Z,-1.62
2023-02-04T21:59:50.800Z,-1.45
2023-02-04T22:02:19.879Z,-1.54
2023-02-04T22:04:51.469Z,-1.56
2023-02-04T22:07:21.283Z,-1.71
2023-02-04T22:09:50.468Z,-1.62
2023-02-04T22:12:27.345Z,-1.56
2023-02-04T22:15:04.279Z,-1.45
2023-02-04T22:20:09.537Z,-1.49
2023-02-04T22:22:38.542Z,-1.49
2023-02-04T22:25:08.388Z,-1.52
2023-02-04T22:27:40.733Z,-1.59
2023-02-04T22:30:20.163Z,-1.58
2023-02-04T22:32:49.400Z,-1.73
2023-02-04T22:35:19.313Z,-1.86
2023-02-04T22:37:49.531Z,-1.62
2023-02-04T22:40:18.933Z,-1.76
2023-02-04T22:43:00.162Z,-1.71
2023-02-04T22:45:34.566Z,-1.74
2023-02-04T22:48:03.990Z,-1.79
2023-02-04T22:50:33.209Z,-1.77
2023-02-04T22:53:08.415Z,-1.79
2023-02-04T22:55:37.447Z,-1.73
2023-02-04T22:58:08.829Z,-1.84
2023-02-04T23:00:38.085Z,-1.77
2023-02-04T23:03:07.670Z,-1.66
2023-02-04T23:05:37.225Z,-1.64
2023-02-04T23:08:06.775Z,-1.65
2023-02-04T23:10:38.096Z,-1.57
2023-02-04T23:13:10.314Z,-1.69
2023-02-04T23:15:40.460Z,-1.69
2023-02-04T23:18:09.578Z,-1.84
2023-02-04T23:20:41.291Z,-1.85
2023-02-04T23:23:16.797Z,-1.79
2023-02-04T23:25:51.532Z,-1.83
2023-02-04T23:28:22.916Z,-1.93
2023-02-04T23:30:58.211Z,-1.85
2023-02-04T23:33:27.632Z,-1.81
2023-02-04T23:35:56.844Z,-1.82
2023-02-04T23:38:26.204Z,-1.78
2023-02-04T23:40:56.697Z,-1.91
2023-02-04T23:43:28.153Z,-1.80
2023-02-04T23:45:59.581Z,-1.79
2023-02-04T23:48:29.077Z,-1.91
2023-02-04T23:50:58.836Z,-1.91
2023-02-04T23:53:27.924Z,-1.83
2023-02-04T23:55:57.016Z,-1.90
2023-02-04T23:58:28.405Z,-1.98
